createdAt,value
2019-03-28T00:01:35.955Z,103514.15
2019-03-28T00:04:08.031Z,103505.70
2019-03-28T00:06:39.328Z,103508.83
2019-03-28T00:09:11.371Z,103509.25
2019-03-28T00:11:42.950Z,103512.75
2019-03-28T00:14:14.456Z,103509.63
2019-03-28T00:16:45.751Z,103511.45
2019-03-28T00:19:18.353Z,103506.12
2019-03-28T00:21:50.660Z,103504.40
2019-03-28T00:24:49.901Z,103516.17
2019-03-28T00:27:21.285Z,103507.02
2019-03-28T00:29:52.982Z,103506.88
2019-03-28T00:32:24.799Z,103510.80
2019-03-28T00:34:56.053Z,103507.34
2019-03-28T00:37:27.264Z,103511.27
2019-03-28T00:39:58.502Z,103512.94
2019-03-28T00:42:30.478Z,103509.02
2019-03-28T00:45:01.921Z,103507.70
2019-03-28T00:47:33.921Z,103510.80
2019-03-28T00:50:15.716Z,103513.08
2019-03-28T00:52:46.992Z,103513.97
2019-03-28T00:55:18.546Z,103511.77
2019-03-28T00:57:50.146Z,103508.32
2019-03-28T01:00:22.272Z,103501.78
2019-03-28T01:02:53.549Z,103504.40
2019-03-28T01:05:25.047Z,103502.20
2019-03-28T01:07:57.754Z,103502.62
2019-03-28T01:10:29.704Z,103500.33
2019-03-28T01:13:01.500Z,103498.61
2019-03-28T01:15:32.700Z,103502.11
2019-03-28T01:18:04.403Z,103496.50
2019-03-28T01:20:36.122Z,103495.66
2019-03-28T01:23:08.313Z,103498.70
2019-03-28T01:25:39.713Z,103497.80
2019-03-28T01:28:11.114Z,103501.73
2019-03-28T01:30:42.815Z,103497.30
2019-03-28T01:33:14.167Z,103499.02
2019-03-28T01:35:45.858Z,103498.19
2019-03-28T01:38:17.204Z,103495.09
2019-03-28T01:40:50.005Z,103504.34
2019-03-28T01:43:23.586Z,103497.72
2019-03-28T01:45:57.035Z,103500.75
2019-03-28T01:48:28.645Z,103497.15
2019-03-28T01:51:00.440Z,103493.64
2019-03-28T01:53:31.879Z,103501.08
2019-03-28T01:56:03.269Z,103500.66
2019-03-28T01:58:34.762Z,103507.20
2019-03-28T02:01:06.594Z,103499.77
2019-03-28T02:03:38.284Z,103494.95
2019-03-28T02:06:09.880Z,103501.08
2019-03-28T02:08:42.361Z,103491.41
2019-03-28T02:11:13.741Z,103494.95
2019-03-28T02:13:46.094Z,103499.20
2019-03-28T02:16:17.871Z,103483.84
2019-03-28T02:18:49.969Z,103500.00
2019-03-28T02:21:21.454Z,103497.39
2019-03-28T02:23:53.329Z,103489.48
2019-03-28T02:26:26.958Z,103490.38
2019-03-28T02:28:58.506Z,103489.48
2019-03-28T02:31:30.279Z,103486.37
2019-03-28T02:34:01.560Z,103492.84
2019-03-28T02:36:33.237Z,103488.74
2019-03-28T02:39:05.621Z,103492.25
2019-03-28T02:41:37.041Z,103491.36
2019-03-28T02:44:09.792Z,103492.58
2019-03-28T02:46:41.123Z,103500.04
2019-03-28T02:49:13.254Z,103507.47
2019-03-28T02:51:44.621Z,103494.81
2019-03-28T02:54:16.084Z,103499.12
2019-03-28T02:56:47.336Z,103500.84
2019-03-28T02:59:20.903Z,103497.75
2019-03-28T03:01:53.185Z,103496.03
2019-03-28T03:04:24.408Z,103491.63
2019-03-28T03:06:55.592Z,103497.25
2019-03-28T03:09:30.073Z,103491.13
2019-03-28T03:12:01.552Z,103498.08
2019-03-28T03:14:32.906Z,103495.88
2019-03-28T03:17:04.233Z,103488.78
2019-03-28T03:19:35.539Z,103485.19
2019-03-28T03:22:08.169Z,103497.33
2019-03-28T03:24:39.514Z,103495.13
2019-03-28T03:27:10.979Z,103498.26
2019-03-28T03:29:42.395Z,103490.41
2019-03-28T03:32:13.754Z,103488.36
2019-03-28T03:34:47.238Z,103487.11
2019-03-28T03:37:18.663Z,103486.73
2019-03-28T03:39:52.209Z,103491.55
2019-03-28T03:42:24.048Z,103488.09
2019-03-28T03:44:55.239Z,103487.30
2019-03-28T03:47:27.655Z,103488.09
2019-03-28T03:49:59.295Z,103488.09
2019-03-28T03:52:30.725Z,103491.55
2019-03-28T03:55:02.289Z,103490.70
2019-03-28T03:57:33.712Z,103484.67
2019-03-28T04:00:05.832Z,103489.02
2019-03-28T04:02:37.279Z,103490.33
2019-03-28T04:05:12.965Z,103487.63
2019-03-28T04:07:44.470Z,103496.36
2019-03-28T04:10:16.099Z,103506.40
2019-03-28T04:12:47.730Z,103510.83
2019-03-28T04:15:19.157Z,103506.07
2019-03-28T04:17:50.727Z,103506.07
2019-03-28T04:20:23.206Z,103502.66
2019-03-28T04:22:54.916Z,103504.86
2019-03-28T04:25:26.154Z,103509.34
2019-03-28T04:27:59.607Z,103486.22
2019-03-28T04:30:31.383Z,103505.42
2019-03-28T04:33:02.660Z,103509.91
2019-03-28T04:35:35.115Z,103510.80
2019-03-28T13:27:34.859Z,103637.88
2019-03-28T13:30:10.202Z,103638.05
2019-03-28T13:32:42.454Z,103636.89
2019-03-28T13:35:14.123Z,103631.81
2019-03-28T13:37:45.091Z,103629.78
2019-03-28T13:40:16.305Z,103633.31
2019-03-28T13:42:48.744Z,103631.98
2019-03-28T13:45:20.276Z,103627.91
2019-03-28T13:47:54.178Z,103630.88
2019-03-28T13:50:24.376Z,103628.45
2019-03-28T13:52:55.321Z,103634.61
2019-03-28T13:55:26.354Z,103632.41
2019-03-28T13:57:57.757Z,103632.92
2019-03-28T14:00:36.337Z,103627.63
2019-03-28T14:03:07.541Z,103620.50
2019-03-28T14:05:38.488Z,103624.97
2019-03-28T14:08:09.463Z,103627.61
2019-03-28T14:10:43.165Z,103629.38
2019-03-28T14:13:14.226Z,103620.91
2019-03-28T14:15:45.214Z,103621.78
2019-03-28T14:18:17.412Z,103619.13
2019-03-28T14:20:48.519Z,103616.48
2019-03-28T14:23:19.402Z,103612.91
2019-03-28T14:25:50.286Z,103615.55
2019-03-28T14:28:21.367Z,103608.08
2019-03-28T14:30:55.562Z,103612.04
2019-03-28T14:33:28.128Z,103607.28
2019-03-28T14:35:59.163Z,103605.48
2019-03-28T14:38:30.116Z,103594.34
2019-03-28T14:41:01.161Z,103597.44
2019-03-28T14:43:32.044Z,103591.31
2019-03-28T14:46:02.970Z,103593.52
2019-03-28T14:48:33.892Z,103587.68
2019-03-28T14:51:04.947Z,103591.09
2019-03-28T14:53:36.099Z,103588.02
2019-03-28T14:56:07.705Z,103592.76
2019-03-28T14:58:39.207Z,103586.59
2019-03-28T15:01:10.317Z,103590.94
2019-03-28T15:03:41.362Z,103592.28
2019-03-28T15:06:13.492Z,103597.45
2019-03-28T15:08:44.456Z,103594.12
2019-03-28T15:11:15.429Z,103594.75
2019-03-28T15:13:46.469Z,103596.74
2019-03-28T15:16:17.895Z,103602.14
2019-03-28T15:18:51.685Z,103595.43
2019-03-28T15:21:22.726Z,103597.89
2019-03-28T15:23:53.656Z,103593.92
2019-03-28T15:26:24.817Z,103591.02
2019-03-28T15:28:55.823Z,103592.44
2019-03-28T15:31:26.744Z,103587.27
2019-03-28T15:33:57.716Z,103583.39
2019-03-28T15:36:28.820Z,103589.70
2019-03-28T15:38:59.799Z,103587.06
2019-03-28T15:41:30.819Z,103575.19
2019-03-28T15:44:01.773Z,103576.65
2019-03-28T15:46:32.719Z,103567.95
2019-03-28T15:49:03.794Z,103569.84
2019-03-28T15:51:34.845Z,103568.87
2019-03-28T15:54:05.939Z,103573.56
2019-03-28T15:56:36.926Z,103570.29
2019-03-28T15:59:08.028Z,103565.70
2019-03-28T16:01:38.915Z,103570.31
2019-03-28T16:04:09.816Z,103573.98
2019-03-28T16:06:40.936Z,103574.17
2019-03-28T16:09:12.509Z,103573.47
2019-03-28T16:11:43.556Z,103567.50
2019-03-28T16:14:14.456Z,103562.05
2019-03-28T16:16:45.488Z,103559.80
2019-03-28T16:19:16.457Z,103556.36
2019-03-28T16:21:50.457Z,103557.25
2019-03-28T16:24:21.427Z,103557.16
2019-03-28T16:26:52.524Z,103564.64
2019-03-28T16:29:23.582Z,103566.70
2019-03-28T16:31:55.911Z,103566.92
2019-03-28T16:34:26.909Z,103563.72
2019-03-28T16:36:58.055Z,103571.49
2019-03-28T16:39:29.191Z,103569.58
2019-03-28T16:42:00.414Z,103566.42
2019-03-28T16:44:31.384Z,103564.44
2019-03-28T16:47:02.521Z,103566.88
2019-03-28T16:49:33.595Z,103572.47
2019-03-28T16:52:04.637Z,103569.68
2019-03-28T16:54:38.841Z,103572.25
2019-03-28T16:57:09.922Z,103568.58
2019-03-28T16:59:40.954Z,103563.17
2019-03-28T17:02:12.063Z,103565.30
2019-03-28T17:04:43.184Z,103567.41
2019-03-28T17:07:15.989Z,103564.86
2019-03-28T17:09:47.520Z,103561.98
2019-03-28T17:12:18.631Z,103565.69
2019-03-28T17:14:49.595Z,103567.66
2019-03-28T17:17:20.686Z,103571.92
2019-03-28T17:19:51.749Z,103567.29
2019-03-28T17:22:22.795Z,103563.64
2019-03-28T17:24:53.920Z,103568.28
2019-03-28T17:28:08.079Z,103568.09
2019-03-28T17:30:43.922Z,103562.87
2019-03-28T17:33:23.077Z,103569.45
2019-03-28T17:35:55.001Z,103574.59
2019-03-28T17:38:27.554Z,103573.59
2019-03-28T17:40:59.103Z,103576.60
2019-03-28T17:43:30.359Z,103576.98
2019-03-28T17:46:01.672Z,103577.39
2019-03-28T17:48:33.030Z,103572.43
2019-03-28T17:51:04.095Z,103566.90
2019-03-28T17:53:35.133Z,103570.72
2019-03-28T17:56:06.343Z,103569.57
2019-03-28T17:58:37.345Z,103567.62
2019-03-28T18:01:08.705Z,103569.72
2019-03-28T18:03:42.925Z,103571.78
2019-03-28T18:06:14.642Z,103569.45
2019-03-28T18:08:46.170Z,103569.80
2019-03-28T18:11:17.535Z,103576.77
2019-03-28T18:13:48.890Z,103576.70
2019-03-28T18:16:20.325Z,103580.14
2019-03-28T18:18:51.601Z,103579.19
2019-03-28T18:21:23.046Z,103578.61
2019-03-28T18:23:54.487Z,103582.48
2019-03-28T18:26:25.930Z,103585.48
2019-03-28T18:28:57.264Z,103587.17
2019-03-28T18:31:28.593Z,103582.70
2019-03-28T18:33:59.993Z,103579.97
2019-03-28T18:39:14.935Z,103584.84
2019-03-28T18:41:46.275Z,103582.39
2019-03-28T18:44:17.564Z,103583.19
2019-03-28T18:46:49.060Z,103587.94
2019-03-28T18:49:23.813Z,103587.88
2019-03-28T18:51:55.110Z,103585.61
2019-03-28T18:54:26.463Z,103583.83
2019-03-28T18:56:58.210Z,103585.52
2019-03-28T18:59:29.447Z,103585.02
2019-03-28T19:02:00.708Z,103589.83
2019-03-28T19:04:32.061Z,103585.76
2019-03-28T19:07:03.460Z,103583.98
2019-03-28T19:09:34.796Z,103581.71
2019-03-28T19:12:06.204Z,103578.13
2019-03-28T19:14:37.474Z,103579.80
2019-03-28T19:17:08.775Z,103578.03
2019-03-28T19:19:40.093Z,103579.22
2019-03-28T19:22:11.375Z,103582.63
2019-03-28T19:24:42.780Z,103582.86
2019-03-28T19:27:14.514Z,103581.44
2019-03-28T19:29:45.621Z,103587.44
2019-03-28T19:32:16.968Z,103587.44
2019-03-28T19:34:48.302Z,103588.69
2019-03-28T19:37:22.685Z,103586.84
2019-03-28T19:39:53.027Z,103583.33
2019-03-28T19:42:24.491Z,103583.75
2019-03-28T19:44:56.066Z,103581.91
2019-03-28T19:47:28.739Z,103588.89
2019-03-28T19:50:00.282Z,103597.19
2019-03-28T19:52:31.697Z,103593.95
2019-03-28T19:55:03.105Z,103592.21
2019-03-28T19:57:34.476Z,103593.43
2019-03-28T20:00:06.465Z,103592.02
2019-03-28T20:02:38.528Z,103601.23
2019-03-28T20:05:11.295Z,103602.55
2019-03-28T20:07:45.705Z,103605.54
2019-03-28T20:10:16.980Z,103606.39
2019-03-28T20:12:48.885Z,103605.90
2019-03-28T20:15:20.198Z,103601.48
2019-03-28T20:17:51.543Z,103604.52
2019-03-28T20:20:25.019Z,103603.63
2019-03-28T20:22:56.787Z,103609.25
2019-03-28T20:25:28.244Z,103607.91
2019-03-28T20:27:59.673Z,103608.63
2019-03-28T20:30:30.980Z,103604.67
2019-03-28T20:33:02.324Z,103609.44
2019-03-28T20:35:33.563Z,103605.92
2019-03-28T20:38:04.830Z,103606.81
2019-03-28T20:40:36.370Z,103613.36
2019-03-28T20:43:08.252Z,103614.67
2019-03-28T20:45:39.568Z,103606.80
2019-03-28T20:48:11.039Z,103613.01
2019-03-28T20:50:42.421Z,103615.90
2019-03-28T20:53:13.707Z,103606.52
2019-03-28T20:55:45.264Z,103615.66
2019-03-28T20:58:16.698Z,103604.44
2019-03-28T21:00:49.287Z,103609.77
2019-03-28T21:03:20.726Z,103601.17
2019-03-28T21:05:52.028Z,103605.58
2019-03-28T21:08:23.447Z,103604.16
2019-03-28T21:10:54.743Z,103611.92
2019-03-28T21:13:29.880Z,103621.09
2019-03-28T21:16:00.575Z,103619.25
2019-03-28T21:18:31.923Z,103616.48
2019-03-28T21:21:03.339Z,103621.20
2019-03-28T21:23:34.705Z,103632.62
2019-03-28T21:26:06.021Z,103636.10
2019-03-28T21:28:47.235Z,103627.67
2019-03-28T21:31:10.580Z,103631.55
2019-03-28T21:33:43.412Z,103629.28
2019-03-28T21:36:28.648Z,103625.69
2019-03-28T21:38:47.795Z,103632.41
2019-03-28T21:41:20.344Z,103627.50
2019-03-28T21:43:52.111Z,103633.22
2019-03-28T21:46:25.951Z,103624.73
2019-03-28T21:48:59.609Z,103618.05
2019-03-28T21:51:30.987Z,103618.47
2019-03-28T21:54:04.883Z,103628.67
2019-03-28T21:56:35.563Z,103632.16
2019-03-28T21:59:10.859Z,103627.25
2019-03-28T22:01:42.314Z,103620.56
2019-03-28T22:04:13.765Z,103624.09
2019-03-28T22:06:45.115Z,103620.42
2019-03-28T22:09:16.455Z,103620.92
2019-03-28T22:11:47.847Z,103618.65
2019-03-28T22:14:19.812Z,103612.00
2019-03-28T22:16:51.135Z,103614.45
2019-03-28T22:19:22.138Z,103621.56
2019-03-28T22:21:53.190Z,103610.97
2019-03-28T22:24:24.171Z,103612.67
2019-03-28T22:26:55.215Z,103607.27
2019-03-28T22:29:26.245Z,103601.05
2019-03-28T22:31:57.224Z,103601.05
2019-03-28T22:34:28.146Z,103598.85
2019-03-28T22:37:00.893Z,103596.58
2019-03-28T22:39:31.869Z,103589.54
2019-03-28T22:42:02.831Z,103588.58
2019-03-28T22:44:34.133Z,103588.51
2019-03-28T22:47:05.945Z,103582.72
2019-03-28T22:49:39.149Z,103578.23
2019-03-28T22:52:10.196Z,103576.42
2019-03-28T22:54:41.185Z,103578.59
2019-03-28T22:57:12.357Z,103567.11
2019-03-28T22:59:43.301Z,103570.09
2019-03-28T23:02:14.362Z,103567.39
2019-03-28T23:04:45.398Z,103566.05
2019-03-28T23:07:16.438Z,103562.92
2019-03-28T23:09:47.316Z,103558.79
2019-03-28T23:12:18.346Z,103565.44
2019-03-28T23:14:49.415Z,103555.27
2019-03-28T23:17:28.189Z,103560.06
2019-03-28T23:20:06.406Z,103553.85
2019-03-28T23:22:37.537Z,103556.41
2019-03-28T23:25:09.298Z,103555.09
2019-03-28T23:27:40.364Z,103543.19
2019-03-28T23:30:11.842Z,103545.36
2019-03-28T23:32:43.015Z,103542.73
2019-03-28T23:35:14.749Z,103540.53
2019-03-28T23:37:45.758Z,103539.61
2019-03-28T23:40:16.960Z,103537.41
2019-03-28T23:42:48.149Z,103528.56
2019-03-28T23:45:19.813Z,103536.41
2019-03-28T23:47:50.999Z,103527.98
2019-03-28T23:50:22.092Z,103533.70
2019-03-28T23:52:53.208Z,103528.88
2019-03-28T23:55:24.277Z,103532.31
2019-03-28T23:57:55.247Z,103531.50
